Flight Track Log - Related Links

Times and Time Zones

All times are in EDT time to prevent confusion due to time zone crossing. See the SWA2383 flight status page for this flight to view local times or setup timezone preferences in your user account.

Time Position Orientation Groundspeed Altitude Reporting Facility
EDT Latitude Longitude Course Direction KTS MPH feet Rate Location/Type
Sat 01:00:43 PM 38.7631 -90.3511 303° West 193 222 3,100  Level FAA TRACON SMA TRACON (SMA)
Sat 01:01:03 PM 38.7728 -90.3714 302° West 213 245 4,800 5,538 Climbing FAA TRACON SMA TRACON (SMA)
Sat 01:01:22 PM 38.7844 -90.3961 301° West 214 246 6,700 4,800 Climbing FAA TRACON SMA TRACON (SMA)
Sat 01:01:43 PM 38.7936 -90.4167 300° West 214 246 8,000 3,220 Climbing FAA TRACON SMA TRACON (SMA)
Sat 01:02:03 PM 38.8053 -90.4378 305° West 227 261 8,900 3,450 Climbing FAA TRACON SMA TRACON (SMA)
Sat 01:02:23 PM 38.8208 -90.4667 305° West 254 292 10,300 3,600 Climbing FAA TRACON SMA TRACON (SMA)
Sat 01:02:43 PM 38.8339 -90.4919 304° West 271 312 11,300 3,349 Climbing FAA TRACON SMA TRACON (SMA)
Sat 01:03:06 PM 38.8511 -90.5261 303° West 294 338 12,700 3,628 Climbing FAA TRACON SMA TRACON (SMA)
Sat 01:03:26 PM 38.8656 -90.5547 303° West 308 354 13,900 3,730 Climbing FAA TRACON SMA TRACON (SMA)
Sat 01:03:43 PM 38.8797 -90.5844 301° West 317 365 15,000 3,667 Climbing FAA TRACON SMA TRACON (SMA)
Sat 01:04:02 PM 38.8958 -90.6142 305° West 326 375 16,100 3,900 Climbing FAA TRACON SMA TRACON (SMA)
Sat 01:04:23 PM 38.9150 -90.6525 303° West 334 384 17,600 3,366 Climbing FAA TRACON SMA TRACON (SMA)
Sat 01:04:43 PM 38.9311 -90.6842 303° West 340 391 18,400 3,300 Climbing FAA TRACON SMA TRACON (SMA)
Sat 01:05:03 PM 38.9508 -90.7244 302° West 347 399 19,800 3,900 Climbing FAA TRACON SMA TRACON (SMA)
Sat 01:05:23 PM 38.9675 -90.7567 304° West 351 404 21,000 3,220 Climbing FAA TRACON SMA TRACON (SMA)
Sat 01:05:44 PM 38.9836 -90.7892 303° West 353 406 22,000 3,000 Climbing FAA TRACON SMA TRACON (SMA)
Sat 01:06:03 PM 39.0047 -90.8303 303° West 358 412 23,000 1,846 Climbing FAA TRACON SMA TRACON (SMA)
Sat 01:06:23 PM 39.0219 -90.8631 304° West 360 414 23,200 1,800 Climbing FAA TRACON SMA TRACON (SMA)
Sat 01:06:43 PM 39.0381 -90.8981 301° West 365 420 24,200 3,150 Climbing FAA TRACON SMA TRACON (SMA)
Sat 01:07:03 PM 39.0600 -90.9400 304° West 368 423 25,300 3,077 Climbing FAA TRACON SMA TRACON (SMA)
Sat 01:07:22 PM 39.0767 -90.9742 302° West 369 425 26,200 2,769 Climbing FAA TRACON SMA TRACON (SMA)
Sat 01:07:42 PM 39.0947 -91.0083 304° West 372 428 27,100 2,233 Climbing FAA TRACON SMA TRACON (SMA)
Sat 01:08:05 PM 39.1117 -91.0431 302° West 373 429 27,800 2,318 Climbing FAA TRACON SMA TRACON (SMA)
Sat 01:08:26 PM 39.1344 -91.0989 298° West 382 440 28,800 2,757 Climbing FAA TRACON SMA TRACON (SMA)
Sat 01:08:42 PM 39.1472 -91.1258 301° West 383 441 29,500 2,833 Climbing FAA TRACON SMA TRACON (SMA)
Sat 01:09:02 PM 39.1639 -91.1617 301° West 381 438 30,500 2,108 Climbing FAA TRACON SMA TRACON (SMA)
Sat 01:09:19 PM 39.1678 -91.2292 274° West 379 436 30,800 2,000 Climbing Kansas City Center
Sat 01:10:20 PM 39.2247 -91.3711 297° West 377 434 33,100 1,623 Climbing Kansas City Center
Sat 01:11:21 PM 39.2856 -91.4794 306° West 375 432 34,100 484 Climbing Kansas City Center
Sat 01:12:24 PM 39.3453 -91.5869 306° West 370 426 34,100  Level Kansas City Center
Sat 01:13:25 PM 39.4028 -91.6931 305° West 369 425 34,100  Level Kansas City Center
Sat 01:14:29 PM 39.4611 -91.8008 305° West 368 423 34,100  Level Kansas City Center
Sat 01:15:29 PM 39.5306 -91.9286 305° West 365 420 34,100  Level Kansas City Center
Sat 01:16:31 PM 39.5894 -92.0369 305° West 367 422 34,100  Level Kansas City Center
Sat 01:17:35 PM 39.6464 -92.1458 304° West 367 422 34,100  Level Kansas City Center
Sat 01:18:36 PM 39.7044 -92.2544 305° West 368 423 34,100  Level Kansas City Center
Sat 01:19:36 PM 39.7625 -92.3617 305° West 366 421 34,100  Level Kansas City Center
Sat 01:20:39 PM 39.8206 -92.4714 305° West 368 423 34,100  Level Kansas City Center
Sat 01:21:40 PM 39.8900 -92.6006 305° West 365 420 34,100  Level Kansas City Center
Sat 01:22:42 PM 39.9481 -92.7111 304° West 368 423 34,100  Level Kansas City Center
Sat 01:23:46 PM 40.0067 -92.8225 305° West 370 426 34,100  Level Kansas City Center
Sat 01:24:46 PM 40.0619 -92.9292 304° West 367 422 34,100  Level Kansas City Center
Sat 01:25:50 PM 40.1217 -93.0431 304° West 368 423 34,100  Level Kansas City Center
Sat 01:26:51 PM 40.1789 -93.1539 304° West 368 423 34,100  Level Kansas City Center
Sat 01:27:54 PM 40.2356 -93.2642 304° West 366 421 34,100  Level Kansas City Center
Sat 01:28:55 PM 40.3047 -93.3964 304° West 367 422 34,100  Level Kansas City Center
Sat 01:29:59 PM 40.3608 -93.5072 304° West 367 422 34,100  Level Kansas City Center
Sat 01:30:46 PM 40.4075 -93.5958 305° West 369 425 34,100  Level Minneapolis Center
Sat 01:31:48 PM 40.4633 -93.7072 303° West 369 425 34,100  Level Minneapolis Center
Sat 01:32:49 PM 40.5197 -93.8208 303° West 372 428 34,100  Level Minneapolis Center
Sat 01:33:51 PM 40.5878 -93.9561 304° West 372 428 34,100  Level Minneapolis Center
Sat 01:34:53 PM 40.6147 -94.0828 286° West 362 417 34,100  Level Minneapolis Center
Sat 01:35:54 PM 40.6356 -94.2139 282° West 366 421 34,100 -878 Level Minneapolis Center
Sat 01:36:56 PM 40.6564 -94.3450 282° West 368 423 32,300 -2,516 Descending Minneapolis Center
Sat 01:37:58 PM 40.6786 -94.4764 283° West 369 425 28,900 -3,171 Descending Minneapolis Center
Sat 01:38:59 PM 40.7014 -94.6089 283° West 370 426 25,800 -2,829 Descending Minneapolis Center
Sat 01:40:01 PM 40.7242 -94.7386 283° West 367 422 23,100 -2,855 Descending Minneapolis Center
Sat 01:41:03 PM 40.7464 -94.8969 281° West 365 420 19,900 -2,827 Descending Minneapolis Center
Sat 01:41:45 PM 40.7739 -94.9714 296° West 347 399 18,200 -2,323 Descending Minneapolis Center
Sat 01:42:05 PM 40.7656 -95.0203 257° West 350 403 17,500 -3,000 Descending Minneapolis Center
Sat 01:42:45 PM 40.7975 -95.0925 300° West 341 392 15,200 -3,443 Descending Minneapolis Center
Sat 01:43:06 PM 40.8042 -95.1347 282° West 348 400 14,000 -3,639 Descending Minneapolis Center
Sat 01:43:46 PM 40.8600 -95.2031 317° Northwest 351 404 11,500 -3,097 Descending Minneapolis Center
Sat 01:44:08 PM 40.8661 -95.2333 285° West 349 402 10,800 -1,279 Descending Minneapolis Center
Sat 01:44:47 PM 40.9172 -95.2981 316° Northwest 330 380 10,200 -677 Descending Minneapolis Center
Sat 01:45:10 PM 40.9228 -95.3244 286° West 337 388 10,100 -984 Descending Minneapolis Center
Sat 01:45:48 PM 40.9625 -95.3781 314° West 259 298 9,200 -1,258 Descending Minneapolis Center
Sat 01:46:12 PM 40.9661 -95.3983 283° West 287 330 8,800 -1,475 Descending Minneapolis Center
Sat 01:46:49 PM 41.0056 -95.4528 314° West 252 290 7,700 -1,574 Descending Minneapolis Center
Sat 01:47:13 PM 41.0125 -95.4722 295° West 268 308 7,200 -1,636 Descending Minneapolis Center
Sat 01:47:44 PM 41.0597 -95.5069 331° Northwest 270 311 6,200 -1,645 Descending Minneapolis Center
Sat 01:48:15 PM 41.0867 -95.5378 319° Northwest 265 305 5,500 -1,180 Descending Minneapolis Center
Sat 01:48:45 PM 41.1161 -95.5667 324° Northwest 262 302 5,000 -484 Descending Minneapolis Center
Sat 01:49:17 PM 41.1436 -95.5961 321° Northwest 263 303 5,000  Level Minneapolis Center
Sat 01:49:45 PM 41.1769 -95.6314 321° Northwest 261 300 5,000  Level Minneapolis Center
Sat 01:50:18 PM 41.2022 -95.6536 327° Northwest 262 302 5,000  Level Minneapolis Center
Sat 01:50:46 PM 41.2389 -95.6794 332° Northwest 260 299 5,000  Level Minneapolis Center
Sat 01:51:20 PM 41.2661 -95.6989 332° Northwest 262 302 5,000  Level Minneapolis Center
Sat 01:51:47 PM 41.3008 -95.7275 328° Northwest 259 298 5,000  Level Minneapolis Center
Sat 01:52:21 PM 41.3283 -95.7442 336° Northwest 260 299 5,000 -295 Level Minneapolis Center
Sat 01:52:48 PM 41.3625 -95.7728 328° Northwest 255 293 4,700 -774 Descending Minneapolis Center
Sat 01:53:23 PM 41.3883 -95.7881 336° Northwest 255 293 4,200 -689 Descending Minneapolis Center
Sat 01:53:49 PM 41.4222 -95.8214 324° Northwest 233 268 4,000 -484 Descending Minneapolis Center
Sat 01:54:25 PM 41.4297 -95.8394 299° West 237 273 3,700 -700 Descending Minneapolis Center
Sat 01:54:49 PM 41.4142 -95.8919 248° West 204 235 3,300 -822 Descending Minneapolis Center
Sat 01:55:38 PM 41.3953 -95.9294 236° Southwest 206 237 2,700 -541 Descending Minneapolis Center
Sat 01:56:51 PM 41.3556 -95.9542 205° Southwest 137 158 2,200 -537 Descending Minneapolis Center
Sat 01:57:41 PM 41.3336 -95.9242 134° Southeast 147 169 1,600 -643 Descending Minneapolis Center
Sat 01:58:43 PM 41.3019 -95.8956 146° Southeast 137 158 1,000 -581 Descending Minneapolis Center

Login

Don't have an account? Register now (free) for customized features, flight alerts, and more!